Time;durP1;ratioP1;P1;durP2;ratioP2;P2;SDS_P1;SDS_P2;PMS_P1;PMS_P2;Temp;Humidity;BMP_temperature;BMP_pressure;BME280_temperature;BME280_humidity;BME280_pressure;Samples;Min_cycle;Max_cycle;Signal;HPM_P1;HPM_P2
2024/03/31 00:00:49;;;;;;;1999.90;999.90;;;;;;;8.17;100.00;99929.47;10339095;28;20061;-65
2024/03/31 00:05:55;;;;;;;1999.90;999.90;;;;;;;8.30;100.00;99926.91;10338071;28;20058;-66
2024/03/31 00:11:01;;;;;;;1999.90;999.90;;;;;;;8.07;100.00;99915.31;10322071;28;20104;-65
2024/03/31 00:16:03;;;;;;;1999.90;999.90;;;;;;;8.46;100.00;99908.59;10322487;28;20046;-66
2024/03/31 00:21:04;;;;;;;1999.90;999.90;;;;;;;8.42;100.00;99904.44;10338130;28;20058;-66
2024/03/31 00:26:05;;;;;;;1999.90;999.90;;;;;;;8.51;100.00;99893.47;10337503;28;20105;-66
2024/03/31 00:31:07;;;;;;;1999.90;999.90;;;;;;;8.55;100.00;99900.16;10337551;28;20061;-66
2024/03/31 00:36:09;;;;;;;1999.90;999.90;;;;;;;8.62;100.00;99884.97;10337087;28;20072;-66
2024/03/31 00:41:11;;;;;;;1999.90;999.90;;;;;;;8.44;100.00;99884.38;10337051;28;20097;-66
2024/03/31 00:46:12;;;;;;;1999.90;999.90;;;;;;;8.50;100.00;99880.53;10336593;28;20113;-66
2024/03/31 00:51:14;;;;;;;1999.90;999.90;;;;;;;8.40;100.00;99888.06;10321176;28;20058;-66
2024/03/31 00:56:15;;;;;;;1999.90;999.90;;;;;;;8.36;100.00;99887.44;10337308;28;20057;-66
2024/03/31 01:01:18;;;;;;;1999.90;999.90;;;;;;;8.52;100.00;99881.28;10336691;28;20062;-66
2024/03/31 01:06:21;;;;;;;1999.90;999.90;;;;;;;8.41;100.00;99879.31;10336186;28;20057;-65
2024/03/31 01:11:23;;;;;;;1999.90;999.90;;;;;;;8.35;100.00;99898.81;10303751;28;20070;-66
2024/03/31 01:16:24;;;;;;;1999.90;999.90;;;;;;;8.24;100.00;99916.03;10319453;28;20043;-66
2024/03/31 01:21:27;;;;;;;1999.90;999.90;;;;;;;8.33;100.00;99921.53;10335096;28;20405;-66
2024/03/31 01:26:28;;;;;;;1999.90;999.90;;;;;;;8.29;100.00;99914.00;10319200;28;20057;-66
2024/03/31 01:31:30;;;;;;;1999.90;999.90;;;;;;;8.31;100.00;99899.09;10334934;28;20054;-66
2024/03/31 01:36:31;;;;;;;1999.90;999.90;;;;;;;8.05;100.00;99913.72;10319118;28;20050;-66
2024/03/31 01:41:33;;;;;;;1999.90;999.90;;;;;;;8.07;100.00;99893.59;10334569;28;20046;-66
2024/03/31 01:46:34;;;;;;;1999.90;999.90;;;;;;;8.10;100.00;99890.81;10334466;28;20046;-66
2024/03/31 01:51:35;;;;;;;1999.90;999.90;;;;;;;7.96;100.00;99887.28;10334135;28;20096;-65
2024/03/31 01:56:37;;;;;;;1999.90;999.90;;;;;;;7.87;100.00;99897.41;10333986;28;20505;-65
2024/03/31 02:01:39;;;;;;;1999.90;999.90;;;;;;;7.64;100.00;99894.44;10334188;28;20058;-65
2024/03/31 02:06:42;;;;;;;1999.90;999.90;;;;;;;7.68;100.00;99910.72;10333771;28;20049;-65
2024/03/31 02:11:44;;;;;;;1999.90;999.90;;;;;;;7.62;100.00;99904.94;10333053;28;20058;-65
2024/03/31 02:16:45;;;;;;;1999.90;999.90;;;;;;;7.63;100.00;99911.84;10333293;28;20054;-65
2024/03/31 02:21:47;;;;;;;1999.90;999.90;;;;;;;7.58;100.00;99923.44;10333861;28;20084;-65
2024/03/31 02:26:48;;;;;;;1999.90;999.90;;;;;;;7.74;100.00;99918.19;10333107;28;20100;-65
2024/03/31 02:31:50;;;;;;;1999.90;999.90;;;;;;;7.74;100.00;99918.19;10333502;28;20057;-65
2024/03/31 02:36:51;;;;;;;1999.90;999.90;;;;;;;8.11;100.00;99915.97;10332651;28;20050;-65
2024/03/31 02:41:53;;;;;;;1999.90;999.90;;;;;;;7.95;100.00;99916.03;10332510;28;20062;-65
2024/03/31 02:46:54;;;;;;;1999.90;999.90;;;;;;;8.02;100.00;99911.28;10332156;28;20073;-65
2024/03/31 02:51:55;;;;;;;1999.90;999.90;;;;;;;7.91;100.00;99919.78;10332664;28;20062;-66
2024/03/31 02:56:57;;;;;;;1999.90;999.90;;;;;;;8.05;100.00;99918.94;10332090;28;20073;-65
2024/03/31 03:01:58;;;;;;;1999.90;999.90;;;;;;;8.04;100.00;99901.63;10332206;28;20085;-65
2024/03/31 03:07:00;;;;;;;1999.90;999.90;;;;;;;7.95;100.00;99871.72;10331747;28;20470;-66
2024/03/31 03:12:01;;;;;;;1999.90;999.90;;;;;;;7.91;100.00;99886.72;10332257;28;20066;-65
2024/03/31 03:17:07;;;;;;;1999.90;999.90;;;;;;;7.78;100.00;99885.78;10332205;28;20105;-66
2024/03/31 03:22:08;;;;;;;1999.90;999.90;;;;;;;8.03;100.00;99890.34;10338944;23;20066;-65
2024/03/31 03:27:09;;;;;;;1999.90;999.90;;;;;;;7.98;100.00;99887.19;10331793;28;20057;-66
2024/03/31 03:32:11;;;;;;;1999.90;999.90;;;;;;;8.11;100.00;99866.44;10331282;28;20505;-66
2024/03/31 03:37:12;;;;;;;1999.90;999.90;;;;;;;7.91;100.00;99860.66;10331973;28;20050;-65
2024/03/31 03:42:14;;;;;;;1999.90;999.90;;;;;;;7.86;100.00;99857.50;10331368;28;20452;-66
2024/03/31 03:47:15;;;;;;;1999.90;999.90;;;;;;;7.91;100.00;99865.88;10330950;28;20047;-66
2024/03/31 03:52:17;;;;;;;1999.90;999.90;;;;;;;7.92;100.00;99875.38;10331766;28;20054;-65
2024/03/31 03:57:19;;;;;;;1999.90;999.90;;;;;;;7.94;100.00;99867.47;10331308;28;20057;-66
2024/03/31 04:02:20;;;;;;;1999.90;999.90;;;;;;;7.95;100.00;99850.88;10330767;28;20046;-66
2024/03/31 04:07:21;;;;;;;1999.90;999.90;;;;;;;8.19;100.00;99869.41;10331153;28;20051;-65
2024/03/31 04:12:23;;;;;;;1999.90;999.90;;;;;;;8.06;100.00;99882.34;10333858;28;20054;-65
2024/03/31 04:17:24;;;;;;;1999.90;999.90;;;;;;;7.81;100.00;99869.97;10322553;28;20042;-65
2024/03/31 04:22:25;;;;;;;1999.90;999.90;;;;;;;8.05;100.00;99869.41;10338099;28;20062;-65
2024/03/31 04:27:27;;;;;;;1999.90;999.90;;;;;;;8.13;100.00;99868.00;10337945;28;20050;-65
2024/03/31 04:32:28;;;;;;;1999.90;999.90;;;;;;;7.96;100.00;99848.19;10338148;28;20054;-65
2024/03/31 04:37:30;;;;;;;1999.90;999.90;;;;;;;7.94;100.00;99844.84;10338028;28;20054;-66
2024/03/31 04:42:31;;;;;;;1999.90;999.90;;;;;;;8.02;100.00;99833.94;10337875;28;20109;-65
2024/03/31 04:47:32;;;;;;;1999.90;999.90;;;;;;;7.92;100.00;99835.47;10337074;28;20051;-66
2024/03/31 04:52:34;;;;;;;1999.90;999.90;;;;;;;8.03;100.00;99829.56;10337437;28;20057;-66
2024/03/31 04:57:36;;;;;;;1999.90;999.90;;;;;;;7.97;100.00;99826.41;10336771;28;20418;-65
2024/03/31 05:02:37;;;;;;;1999.90;999.90;;;;;;;7.92;100.00;99831.06;10336221;28;20441;-64
2024/03/31 05:07:38;;;;;;;1999.90;999.90;;;;;;;7.99;100.00;99821.94;10336005;28;20081;-64
2024/03/31 05:12:40;;;;;;;1999.90;999.90;;;;;;;8.23;100.00;99818.72;10335751;28;20050;-64
2024/03/31 05:17:41;;;;;;;1999.90;999.90;;;;;;;7.93;100.00;99829.28;10335890;28;20057;-64
2024/03/31 05:22:42;;;;;;;1999.90;999.90;;;;;;;7.93;100.00;99816.25;10335583;28;20567;-64
2024/03/31 05:27:44;;;;;;;1999.90;999.90;;;;;;;8.05;100.00;99814.66;10335168;28;20485;-64
2024/03/31 05:32:45;;;;;;;1999.90;999.90;;;;;;;8.37;100.00;99810.88;10335411;28;20085;-64
2024/03/31 05:37:46;;;;;;;1999.90;999.90;;;;;;;8.26;100.00;99808.09;10334846;28;20457;-64
2024/03/31 05:42:48;;;;;;;1999.90;999.90;;;;;;;8.29;100.00;99796.66;10334611;28;20073;-64
2024/03/31 05:47:49;;;;;;;1999.90;999.90;;;;;;;8.22;100.00;99790.97;10334308;28;20058;-64
2024/03/31 05:52:51;;;;;;;1999.90;999.90;;;;;;;8.31;100.00;99799.97;10334237;28;20453;-64
2024/03/31 05:57:52;;;;;;;1999.90;999.90;;;;;;;8.25;100.00;99801.19;10334302;28;20047;-64
2024/03/31 06:02:54;;;;;;;1999.90;999.90;;;;;;;8.47;100.00;99808.53;10333586;28;20100;-64
2024/03/31 06:07:55;;;;;;;1999.90;999.90;;;;;;;8.29;100.00;99804.47;10333714;28;20058;-64
2024/03/31 06:12:56;;;;;;;1999.90;999.90;;;;;;;8.62;100.00;99796.25;10334168;28;20113;-64
2024/03/31 06:17:58;;;;;;;1999.90;999.90;;;;;;;8.57;100.00;99789.66;10333853;28;20053;-64
2024/03/31 06:22:59;;;;;;;1999.90;999.90;;;;;;;8.74;100.00;99790.25;10333652;28;21179;-64
2024/03/31 06:28:01;;;;;;;1999.90;999.90;;;;;;;8.65;100.00;99793.44;10332827;28;20414;-64
2024/03/31 06:33:02;;;;;;;1999.90;999.90;;;;;;;8.84;100.00;99779.19;10333618;28;20062;-64
2024/03/31 06:38:04;;;;;;;1999.90;999.90;;;;;;;8.64;100.00;99797.00;10331970;28;20494;-64
2024/03/31 06:43:05;;;;;;;1999.90;999.90;;;;;;;8.70;100.00;99800.97;10332516;28;20069;-64
2024/03/31 06:48:07;;;;;;;1999.90;999.90;;;;;;;8.92;100.00;99795.19;10332452;28;20053;-64
2024/03/31 06:53:08;;;;;;;1999.90;999.90;;;;;;;8.93;100.00;99796.88;10332942;28;20058;-64
2024/03/31 06:58:10;;;;;;;1999.90;999.90;;;;;;;8.83;100.00;99793.19;10332948;28;20057;-64
2024/03/31 07:03:11;;;;;;;1999.90;999.90;;;;;;;9.03;100.00;99797.09;10331370;28;20046;-64
2024/03/31 07:08:12;;;;;;;1999.90;999.90;;;;;;;9.21;100.00;99780.19;10299673;28;20050;-64
2024/03/31 07:13:14;;;;;;;1999.90;999.90;;;;;;;9.34;100.00;99772.31;10331975;28;20073;-64
2024/03/31 07:18:15;;;;;;;1999.90;999.90;;;;;;;9.57;100.00;99767.31;10331679;28;20055;-64
2024/03/31 07:23:17;;;;;;;1999.90;999.90;;;;;;;9.61;100.00;99766.97;10331830;28;20050;-64
2024/03/31 07:28:18;;;;;;;1999.90;999.90;;;;;;;9.61;100.00;99769.56;10331432;28;20105;-64
2024/03/31 07:33:20;;;;;;;1999.90;999.90;;;;;;;9.86;100.00;99771.31;10331180;28;20497;-64
2024/03/31 07:38:21;;;;;;;1999.90;999.90;;;;;;;9.99;100.00;99768.66;10315514;28;20050;-64
2024/03/31 07:43:24;;;;;;;1999.90;999.90;;;;;;;10.28;100.00;99752.66;10315286;28;20112;-64
2024/03/31 07:48:25;;;;;;;1999.90;999.90;;;;;;;10.09;100.00;99753.16;10320186;28;20062;-65
2024/03/31 07:53:27;;;;;;;1999.90;999.90;;;;;;;10.14;100.00;99745.81;10339641;28;20063;-64
2024/03/31 07:58:28;;;;;;;1999.90;999.90;;;;;;;10.23;100.00;99739.91;10339506;28;20051;-65
2024/03/31 08:03:30;;;;;;;1999.90;999.90;;;;;;;10.18;100.00;99741.19;10338562;28;20114;-64
2024/03/31 08:08:31;;;;;;;1999.90;999.90;;;;;;;10.35;100.00;99751.28;10338148;28;20077;-64
2024/03/31 08:13:33;;;;;;;1999.90;999.90;;;;;;;10.20;100.00;99744.53;10306698;28;20058;-65
2024/03/31 08:18:35;;;;;;;1999.90;999.90;;;;;;;10.75;100.00;99732.63;10337666;28;20441;-64
2024/03/31 08:23:37;;;;;;;1999.90;999.90;;;;;;;10.74;100.00;99732.72;10321640;28;20521;-65
2024/03/31 08:28:38;;;;;;;1999.90;999.90;;;;;;;11.00;100.00;99724.72;10337555;28;20105;-64
2024/03/31 08:33:40;;;;;;;1999.90;999.90;;;;;;;11.39;100.00;99720.78;10337575;28;20054;-65
2024/03/31 08:38:41;;;;;;;1999.90;999.90;;;;;;;12.81;100.00;99718.13;10337743;28;20113;-65
2024/03/31 08:43:44;;;;;;;1999.90;999.90;;;;;;;13.00;100.00;99706.06;10337044;28;20406;-65
2024/03/31 08:48:45;;;;;;;1999.90;999.90;;;;;;;12.39;100.00;99710.22;10321457;28;20065;-65
2024/03/31 08:53:47;;;;;;;1999.90;999.90;;;;;;;12.94;100.00;99702.13;10321020;28;20058;-65
2024/03/31 08:58:49;;;;;;;1999.90;999.90;;;;;;;12.83;100.00;99705.69;10320133;28;20080;-65
2024/03/31 09:03:50;;;;;;;1999.90;999.90;;;;;;;13.35;100.00;99702.25;10336646;28;20050;-65
2024/03/31 09:08:59;;;;;;;1999.90;999.90;;;;;;;13.66;100.00;99702.19;10336790;28;20050;-65
2024/03/31 09:14:01;;;;;;;1999.90;999.90;;;;;;;15.01;100.00;99690.00;10336561;28;20046;-65
2024/03/31 09:19:02;;;;;;;1999.90;999.90;;;;;;;15.24;100.00;99682.53;10319835;28;20054;-65
2024/03/31 09:24:04;;;;;;;1999.90;999.90;;;;;;;14.44;100.00;99684.66;10331159;28;20062;-66
2024/03/31 09:29:05;;;;;;;1999.90;999.90;;;;;;;15.21;100.00;99682.00;10335980;28;20069;-66
2024/03/31 09:34:07;;;;;;;1999.90;999.90;;;;;;;17.19;92.21;99666.94;10335548;28;20096;-66
2024/03/31 09:39:09;;;;;;;1999.90;999.90;;;;;;;16.80;92.47;99667.38;10335138;28;20113;-66
2024/03/31 09:44:10;;;;;;;1999.90;999.90;;;;;;;16.15;85.95;99660.63;10334207;28;20046;-66
2024/03/31 09:49:13;;;;;;;1999.90;999.90;;;;;;;17.13;85.55;99657.00;10319032;28;20058;-66
2024/03/31 09:54:31;;;;;;;1999.90;999.90;;;;;;;17.36;83.11;99664.38;10334618;28;20050;-66
2024/03/31 09:59:40;;;;;;;1999.90;999.90;;;;;;;17.78;76.94;99659.03;10317647;28;20050;-66
2024/03/31 10:05:06;;;;;;;1999.90;999.90;;;;;;;18.44;77.93;99651.16;10333815;28;20450;-66
2024/03/31 10:10:08;;;;;;;1999.90;999.90;;;;;;;20.07;74.41;99644.56;10333844;28;20050;-67
2024/03/31 10:15:10;;;;;;;1999.90;999.90;;;;;;;18.47;78.07;99642.03;10318072;28;20053;-67
2024/03/31 10:20:14;;;;;;;1999.90;999.90;;;;;;;19.54;74.37;99639.91;10317832;28;20061;-67
2024/03/31 10:25:15;;;;;;;1999.90;999.90;;;;;;;21.42;70.52;99628.53;10317193;28;20062;-67
2024/03/31 10:30:18;;;;;;;1999.90;999.90;;;;;;;19.91;67.11;99642.88;10317147;28;20057;-67
2024/03/31 10:35:19;;;;;;;1999.90;999.90;;;;;;;19.71;69.05;99653.09;10316707;28;20053;-67
2024/03/31 10:40:25;;;;;;;1999.90;999.90;;;;;;;18.04;72.91;99657.28;10316581;28;20410;-67
2024/03/31 10:45:26;;;;;;;1999.90;999.90;;;;;;;16.80;74.20;99651.50;10316974;28;20494;-67
2024/03/31 10:50:29;;;;;;;1999.90;999.90;;;;;;;17.48;75.99;99635.81;10333039;28;20054;-67
2024/03/31 10:55:30;;;;;;;1999.90;999.90;;;;;;;18.59;74.44;99638.03;10332388;28;20493;-67
2024/03/31 11:00:43;;;;;;;1999.90;999.90;;;;;;;18.36;73.47;99629.97;10316044;28;20057;-67
2024/03/31 11:05:44;;;;;;;1999.90;999.90;;;;;;;19.59;72.66;99611.00;10332267;28;20050;-68
2024/03/31 11:10:46;;;;;;;1999.90;999.90;;;;;;;20.82;67.43;99598.53;10332510;28;20062;-68
2024/03/31 11:15:48;;;;;;;1999.90;999.90;;;;;;;21.20;60.15;99584.25;10332406;28;20054;-68
2024/03/31 11:20:49;;;;;;;1999.90;999.90;;;;;;;23.58;61.20;99579.22;10334765;28;20065;-68
2024/03/31 11:25:51;;;;;;;1999.90;999.90;;;;;;;23.40;59.30;99575.25;10321417;28;20054;-68
2024/03/31 11:30:52;;;;;;;1999.90;999.90;;;;;;;24.63;58.21;99561.53;10340535;28;20050;-68
2024/03/31 11:35:55;;;;;;;1999.90;999.90;;;;;;;23.34;55.31;99563.53;10340249;28;20054;-68
2024/03/31 11:40:56;;;;;;;1999.90;999.90;;;;;;;22.78;54.09;99563.72;10307709;28;20108;-68
2024/03/31 11:45:58;;;;;;;1999.90;999.90;;;;;;;20.38;59.82;99568.22;10323299;28;20057;-69
2024/03/31 11:50:59;;;;;;;1999.90;999.90;;;;;;;19.79;60.53;99563.59;10323583;28;20093;-68
2024/03/31 11:56:01;;;;;;;1999.90;999.90;;;;;;;20.84;61.49;99561.09;10339386;28;20046;-68
2024/03/31 12:01:02;;;;;;;1999.90;999.90;;;;;;;20.23;62.29;99552.25;10338989;28;20054;-68
2024/03/31 12:06:04;;;;;;;1999.90;999.90;;;;;;;20.79;61.13;99553.66;10322222;28;20062;-66
2024/03/31 12:11:05;;;;;;;1999.90;999.90;;;;;;;19.82;62.42;99554.44;10338110;28;20117;-66
2024/03/31 12:16:07;;;;;;;1999.90;999.90;;;;;;;18.30;62.52;99545.84;10337993;28;20073;-67
2024/03/31 12:21:08;;;;;;;1999.90;999.90;;;;;;;18.61;63.84;99543.31;10338536;28;20050;-66
2024/03/31 12:26:10;;;;;;;1999.90;999.90;;;;;;;18.15;62.73;99521.88;10337679;28;20057;-66
2024/03/31 12:31:20;;;;;;;1999.90;999.90;;;;;;;17.91;62.34;99528.03;10321110;28;20046;-66
2024/03/31 12:36:22;;;;;;;1999.90;999.90;;;;;;;18.82;64.16;99518.03;10320834;28;20124;-65
2024/03/31 12:41:24;;;;;;;1999.90;999.90;;;;;;;18.14;63.51;99514.91;10337183;28;20058;-66
2024/03/31 12:46:25;;;;;;;1999.90;999.90;;;;;;;18.39;64.37;99502.44;10336968;28;20055;-69
2024/03/31 12:51:26;;;;;;;1999.90;999.90;;;;;;;18.51;62.29;99492.31;10336873;28;20405;-68
2024/03/31 12:56:28;;;;;;;1999.90;999.90;;;;;;;19.35;61.63;99481.94;10321073;28;20061;-68
2024/03/31 13:01:29;;;;;;;1999.90;999.90;;;;;;;19.20;60.96;99478.38;10336197;28;20054;-68
2024/03/31 13:06:30;;;;;;;1999.90;999.90;;;;;;;19.09;61.58;99469.00;10320416;28;20101;-68
2024/03/31 13:11:33;;;;;;;1999.90;999.90;;;;;;;19.34;59.29;99460.88;10336851;28;20054;-68
2024/03/31 13:16:36;;;;;;;1999.90;999.90;;;;;;;19.01;58.43;99461.91;10336368;28;20054;-68
2024/03/31 13:21:38;;;;;;;1999.90;999.90;;;;;;;18.66;60.69;99456.13;10319741;28;20061;-68
2024/03/31 13:26:39;;;;;;;1999.90;999.90;;;;;;;18.38;61.79;99448.63;10317182;28;20047;-68
2024/03/31 13:31:41;;;;;;;1999.90;999.90;;;;;;;18.84;64.21;99445.28;10335812;28;20054;-68
2024/03/31 13:36:42;;;;;;;1999.90;999.90;;;;;;;19.24;65.15;99434.59;10335720;28;20085;-68
2024/03/31 13:41:44;;;;;;;1999.90;999.90;;;;;;;19.31;67.48;99428.38;10335408;28;20066;-68
2024/03/31 13:46:46;;;;;;;1999.90;999.90;;;;;;;19.00;68.71;99420.50;10333346;28;20340;-68
2024/03/31 13:51:47;;;;;;;1999.90;999.90;;;;;;;18.68;69.80;99411.72;10335020;28;20125;-68
2024/03/31 13:56:49;;;;;;;1999.90;999.90;;;;;;;18.74;71.15;99400.41;10334243;28;20130;-68
2024/03/31 14:01:50;;;;;;;1999.90;999.90;;;;;;;18.72;70.69;99378.53;10333350;28;20058;-68
2024/03/31 14:06:51;;;;;;;1999.90;999.90;;;;;;;18.29;72.33;99372.84;10333746;28;20089;-68
2024/03/31 14:11:53;;;;;;;1999.90;999.90;;;;;;;18.40;72.57;99345.13;10334052;28;20066;-68
2024/03/31 14:16:58;;;;;;;1999.90;999.90;;;;;;;18.60;71.43;99344.69;10334148;28;20069;-68
2024/03/31 14:22:00;;;;;;;1999.90;999.90;;;;;;;18.75;68.57;99356.16;10317740;28;20054;-68
2024/03/31 14:27:01;;;;;;;1999.90;999.90;;;;;;;19.49;66.06;99345.78;10330911;28;20062;-68
2024/03/31 14:32:03;;;;;;;1999.90;999.90;;;;;;;18.82;67.38;99348.34;10332789;28;20054;-68
2024/03/31 14:37:04;;;;;;;1999.90;999.90;;;;;;;17.94;67.62;99340.53;10349245;28;20482;-68
2024/03/31 14:42:06;;;;;;;1999.90;999.90;;;;;;;18.05;70.45;99330.56;10333252;28;20065;-68
2024/03/31 14:47:07;;;;;;;1999.90;999.90;;;;;;;18.39;69.10;99327.56;10349042;28;20058;-68
2024/03/31 14:52:11;;;;;;;1999.90;999.90;;;;;;;18.46;69.11;99320.56;10332394;28;20128;-68
2024/03/31 14:57:12;;;;;;;1999.90;999.90;;;;;;;18.49;67.66;99314.09;10332270;28;20054;-68
2024/03/31 15:02:14;;;;;;;1999.90;999.90;;;;;;;18.41;68.69;99317.63;10331999;28;20062;-68
2024/03/31 15:07:16;;;;;;;1999.90;999.90;;;;;;;18.34;68.41;99304.25;10332141;28;20046;-68
2024/03/31 15:12:18;;;;;;;1999.90;999.90;;;;;;;18.25;69.38;99299.16;10332126;28;20054;-68
2024/03/31 15:17:19;;;;;;;1999.90;999.90;;;;;;;18.08;69.89;99307.19;10331727;28;20061;-68
2024/03/31 15:22:21;;;;;;;1999.90;999.90;;;;;;;17.51;68.22;99299.44;10331807;28;20482;-68
2024/03/31 15:27:22;;;;;;;1999.90;999.90;;;;;;;17.20;68.15;99287.75;10331426;28;20061;-68
2024/03/31 15:32:24;;;;;;;1999.90;999.90;;;;;;;17.26;67.19;99278.31;10331976;28;20062;-68
2024/03/31 15:37:25;;;;;;;1999.90;999.90;;;;;;;17.67;73.77;99250.91;10343021;22;20061;-67
2024/03/31 15:42:26;;;;;;;1999.90;999.90;;;;;;;17.33;77.60;99257.31;10371906;28;20050;-67
2024/03/31 15:47:28;;;;;;;1999.90;999.90;;;;;;;17.10;76.94;99242.16;10355453;28;20050;-67
2024/03/31 15:52:29;;;;;;;1999.90;999.90;;;;;;;17.19;76.63;99245.63;10355266;28;20416;-67
2024/03/31 15:57:31;;;;;;;1999.90;999.90;;;;;;;17.40;73.56;99245.91;10372135;28;20050;-67
2024/03/31 16:02:34;;;;;;;1999.90;999.90;;;;;;;17.25;74.79;99242.31;10371650;28;20058;-67
2024/03/31 16:07:35;;;;;;;1999.90;999.90;;;;;;;16.90;75.66;99241.69;10356786;28;20436;-67
2024/03/31 16:12:37;;;;;;;1999.90;999.90;;;;;;;16.63;78.35;99238.38;10379578;28;20058;-68
2024/03/31 16:17:38;;;;;;;1999.90;999.90;;;;;;;16.49;76.28;99244.31;10379032;28;20053;-67
2024/03/31 16:22:40;;;;;;;1999.90;999.90;;;;;;;16.48;73.73;99247.94;10362624;28;20054;-67
2024/03/31 16:27:43;;;;;;;1999.90;999.90;;;;;;;16.33;74.95;99264.44;10378371;28;20050;-67
2024/03/31 16:32:45;;;;;;;1999.90;999.90;;;;;;;16.11;74.91;99270.34;10378190;28;20057;-67
2024/03/31 16:37:46;;;;;;;1999.90;999.90;;;;;;;15.80;79.24;99278.78;10361990;28;20273;-67
2024/03/31 16:42:47;;;;;;;1999.90;999.90;;;;;;;15.23;86.99;99289.84;10377656;28;20144;-66
2024/03/31 16:47:49;;;;;;;1999.90;999.90;;;;;;;14.54;94.32;99323.00;10377443;28;20050;-66
2024/03/31 16:52:50;;;;;;;1999.90;999.90;;;;;;;14.34;100.00;99374.97;10377945;28;20053;-65
2024/03/31 16:57:52;;;;;;;1999.90;999.90;;;;;;;13.25;100.00;99376.25;10360539;28;20390;-67
2024/03/31 17:02:53;;;;;;;1999.90;999.90;;;;;;;13.85;100.00;99380.44;10376723;28;20053;-66
2024/03/31 17:07:54;;;;;;;1999.90;999.90;;;;;;;13.41;100.00;99357.28;10360167;28;20060;-66
2024/03/31 17:12:56;;;;;;;1999.90;999.90;;;;;;;13.42;100.00;99340.56;10376805;28;20108;-66
2024/03/31 17:17:57;;;;;;;1999.90;999.90;;;;;;;13.47;100.00;99359.38;10376295;28;20046;-66
2024/03/31 17:22:58;;;;;;;1999.90;999.90;;;;;;;13.26;100.00;99359.50;10376665;28;20065;-66
2024/03/31 17:28:00;;;;;;;1999.90;999.90;;;;;;;13.22;100.00;99354.69;10376350;28;20061;-66
2024/03/31 17:33:01;;;;;;;1999.90;999.90;;;;;;;13.33;100.00;99355.41;10375519;28;20516;-66
2024/03/31 17:38:03;;;;;;;1999.90;999.90;;;;;;;13.28;100.00;99362.84;10359071;28;20563;-66
2024/03/31 17:43:04;;;;;;;1999.90;999.90;;;;;;;13.23;100.00;99354.56;10375303;28;20477;-66
2024/03/31 17:48:06;;;;;;;1999.90;999.90;;;;;;;13.24;100.00;99366.69;10375033;28;20054;-66
2024/03/31 17:53:07;;;;;;;1999.90;999.90;;;;;;;13.01;100.00;99348.63;10359215;28;20088;-66
2024/03/31 17:58:09;;;;;;;1999.90;999.90;;;;;;;13.03;100.00;99340.59;10375329;28;20057;-66
2024/03/31 18:03:10;;;;;;;1999.90;999.90;;;;;;;13.08;100.00;99327.03;10374945;28;20050;-65
2024/03/31 18:08:11;;;;;;;1999.90;999.90;;;;;;;12.97;100.00;99333.25;10374427;28;20053;-65
2024/03/31 18:13:13;;;;;;;1999.90;999.90;;;;;;;12.88;100.00;99334.94;10358267;28;20049;-66
2024/03/31 18:18:15;;;;;;;1999.90;999.90;;;;;;;12.67;100.00;99336.84;10374384;28;20054;-65
2024/03/31 18:23:16;;;;;;;1999.90;999.90;;;;;;;12.70;100.00;99342.66;10374773;28;20119;-66
2024/03/31 18:28:17;;;;;;;1999.90;999.90;;;;;;;12.66;100.00;99343.06;10373870;28;20053;-66
2024/03/31 18:33:19;;;;;;;1999.90;999.90;;;;;;;12.59;100.00;99354.13;10373418;28;20390;-66
2024/03/31 18:38:20;;;;;;;1999.90;999.90;;;;;;;12.58;100.00;99347.22;10373518;28;20053;-66
2024/03/31 18:43:23;;;;;;;1999.90;999.90;;;;;;;12.67;100.00;99339.47;10373331;28;20076;-66
2024/03/31 18:48:25;;;;;;;1999.90;999.90;;;;;;;12.55;100.00;99350.09;10357247;28;20077;-66
2024/03/31 18:53:27;;;;;;;1999.90;999.90;;;;;;;12.56;100.00;99348.31;10356619;28;20058;-66
2024/03/31 18:58:32;;;;;;;1999.90;999.90;;;;;;;12.38;100.00;99356.03;10372640;28;20425;-66
2024/03/31 19:03:35;;;;;;;1999.90;999.90;;;;;;;12.19;100.00;99351.56;10357444;28;20405;-66
2024/03/31 19:08:38;;;;;;;1999.90;999.90;;;;;;;12.26;100.00;99336.94;10372153;28;20508;-66
2024/03/31 19:13:40;;;;;;;1999.90;999.90;;;;;;;12.23;100.00;99350.31;10372542;28;20108;-65
2024/03/31 19:18:41;;;;;;;1999.90;999.90;;;;;;;12.06;100.00;99344.75;10372284;28;20057;-66
2024/03/31 19:23:43;;;;;;;1999.90;999.90;;;;;;;11.96;100.00;99348.31;10372367;28;20046;-66
2024/03/31 19:28:44;;;;;;;1999.90;999.90;;;;;;;11.75;100.00;99364.03;10372236;28;20042;-65
2024/03/31 19:33:46;;;;;;;1999.90;999.90;;;;;;;11.86;100.00;99356.91;10372629;28;20066;-66
2024/03/31 19:38:47;;;;;;;1999.90;999.90;;;;;;;11.56;100.00;99362.16;10372397;28;20053;-66
2024/03/31 19:43:48;;;;;;;1999.90;999.90;;;;;;;11.66;100.00;99366.47;10377516;28;20065;-66
2024/03/31 19:48:50;;;;;;;1999.90;999.90;;;;;;;11.36;100.00;99358.59;10379746;28;20409;-66
2024/03/31 19:53:54;;;;;;;1999.90;999.90;;;;;;;11.36;100.00;99358.59;10380109;28;20057;-65
2024/03/31 19:58:56;;;;;;;1999.90;999.90;;;;;;;11.53;100.00;99356.22;10379629;28;20061;-65
2024/03/31 20:03:57;;;;;;;1999.90;999.90;;;;;;;11.44;100.00;99343.06;10379699;28;20054;-65
2024/03/31 20:08:58;;;;;;;1999.90;999.90;;;;;;;11.17;100.00;99348.81;10379007;28;20049;-65
2024/03/31 20:14:00;;;;;;;1999.90;999.90;;;;;;;11.09;100.00;99352.88;10379459;28;20057;-65
2024/03/31 20:19:01;;;;;;;1999.90;999.90;;;;;;;10.90;100.00;99357.97;10379156;28;20050;-65
2024/03/31 20:24:06;;;;;;;1999.90;999.90;;;;;;;10.75;100.00;99354.81;10379093;28;20061;-65
2024/03/31 20:29:08;;;;;;;1999.90;999.90;;;;;;;10.75;100.00;99354.81;10378927;28;20054;-65
2024/03/31 20:34:09;;;;;;;1999.90;999.90;;;;;;;10.69;100.00;99350.06;10378648;28;20061;-65
2024/03/31 20:39:11;;;;;;;1999.90;999.90;;;;;;;10.56;100.00;99345.84;10377570;28;20474;-65
2024/03/31 20:44:12;;;;;;;1999.90;999.90;;;;;;;10.56;100.00;99347.63;10377163;28;20409;-66
2024/03/31 20:49:14;;;;;;;1999.90;999.90;;;;;;;10.48;100.00;99355.25;10360831;28;20409;-66
2024/03/31 20:54:17;;;;;;;1999.90;999.90;;;;;;;10.55;100.00;99352.00;10376911;28;20058;-65
2024/03/31 20:59:18;;;;;;;1999.90;999.90;;;;;;;10.44;100.00;99345.97;10377481;28;20077;-65
2024/03/31 21:04:20;;;;;;;1999.90;999.90;;;;;;;10.35;100.00;99348.38;10376770;28;20456;-65
2024/03/31 21:09:21;;;;;;;1999.90;999.90;;;;;;;10.26;100.00;99353.50;10376814;28;20490;-65
2024/03/31 21:14:22;;;;;;;1999.90;999.90;;;;;;;10.31;100.00;99356.56;10360484;28;20072;-65
2024/03/31 21:19:24;;;;;;;1999.90;999.90;;;;;;;10.14;100.00;99347.44;10376994;28;20065;-65
2024/03/31 21:24:26;;;;;;;1999.90;999.90;;;;;;;9.99;100.00;99333.78;10376876;28;20049;-65
2024/03/31 21:29:27;;;;;;;1999.90;999.90;;;;;;;10.18;100.00;99322.69;10359859;28;20417;-66
2024/03/31 21:34:28;;;;;;;1999.90;999.90;;;;;;;10.27;100.00;99300.19;10359340;28;20057;-65
2024/03/31 21:39:30;;;;;;;1999.90;999.90;;;;;;;10.30;100.00;99311.25;10375508;28;20060;-65
2024/03/31 21:44:31;;;;;;;1999.90;999.90;;;;;;;10.12;100.00;99321.41;10375580;28;20088;-65
2024/03/31 21:49:33;;;;;;;1999.90;999.90;;;;;;;10.10;100.00;99304.97;10375645;28;20050;-65
2024/03/31 21:54:34;;;;;;;1999.90;999.90;;;;;;;9.88;100.00;99298.00;10375554;28;20049;-66
2024/03/31 21:59:35;;;;;;;1999.90;999.90;;;;;;;9.85;100.00;99313.94;10374922;28;20513;-65